sensor_id;sensor_type;location;lat;lon;timestamp;P1;durP1;ratioP1;P2;durP2;ratioP2
42682;SDS011;28293;50.930;3.464;2022-12-07T00:01:34;21.08;;;15.25;;
42682;SDS011;28293;50.930;3.464;2022-12-07T00:04:03;21.50;;;15.77;;
42682;SDS011;28293;50.930;3.464;2022-12-07T00:07:03;25.20;;;16.95;;
42682;SDS011;28293;50.930;3.464;2022-12-07T00:09:21;21.98;;;18.02;;
42682;SDS011;28293;50.930;3.464;2022-12-07T00:11:48;24.70;;;18.20;;
42682;SDS011;28293;50.930;3.464;2022-12-07T00:14:15;20.23;;;16.27;;
42682;SDS011;28293;50.930;3.464;2022-12-07T00:16:42;22.13;;;16.50;;
42682;SDS011;28293;50.930;3.464;2022-12-07T00:19:08;23.05;;;16.58;;
42682;SDS011;28293;50.930;3.464;2022-12-07T00:21:35;25.65;;;18.27;;
42682;SDS011;28293;50.930;3.464;2022-12-07T00:24:02;24.48;;;18.55;;
42682;SDS011;28293;50.930;3.464;2022-12-07T00:26:35;24.17;;;19.45;;
42682;SDS011;28293;50.930;3.464;2022-12-07T00:29:03;25.30;;;20.17;;
42682;SDS011;28293;50.930;3.464;2022-12-07T00:31:31;35.17;;;27.52;;
42682;SDS011;28293;50.930;3.464;2022-12-07T00:33:59;34.95;;;25.10;;
42682;SDS011;28293;50.930;3.464;2022-12-07T00:36:25;25.38;;;19.35;;
42682;SDS011;28293;50.930;3.464;2022-12-07T00:38:51;25.35;;;18.33;;
42682;SDS011;28293;50.930;3.464;2022-12-07T00:41:18;23.40;;;17.85;;
42682;SDS011;28293;50.930;3.464;2022-12-07T00:43:48;26.30;;;18.17;;
42682;SDS011;28293;50.930;3.464;2022-12-07T00:46:15;22.92;;;17.83;;
42682;SDS011;28293;50.930;3.464;2022-12-07T00:48:41;23.83;;;16.77;;
42682;SDS011;28293;50.930;3.464;2022-12-07T00:51:07;21.80;;;16.75;;
42682;SDS011;28293;50.930;3.464;2022-12-07T00:53:34;21.00;;;16.80;;
42682;SDS011;28293;50.930;3.464;2022-12-07T00:59:02;19.75;;;15.57;;
42682;SDS011;28293;50.930;3.464;2022-12-07T01:01:30;20.10;;;15.57;;
42682;SDS011;28293;50.930;3.464;2022-12-07T01:04:00;23.02;;;17.92;;
42682;SDS011;28293;50.930;3.464;2022-12-07T01:06:26;21.35;;;16.63;;
42682;SDS011;28293;50.930;3.464;2022-12-07T01:08:52;23.02;;;17.88;;
42682;SDS011;28293;50.930;3.464;2022-12-07T01:11:20;24.42;;;17.00;;
42682;SDS011;28293;50.930;3.464;2022-12-07T01:13:48;20.75;;;15.77;;
42682;SDS011;28293;50.930;3.464;2022-12-07T01:16:15;21.02;;;15.90;;
42682;SDS011;28293;50.930;3.464;2022-12-07T01:18:42;22.70;;;15.77;;
42682;SDS011;28293;50.930;3.464;2022-12-07T01:21:13;22.48;;;15.63;;
42682;SDS011;28293;50.930;3.464;2022-12-07T01:23:40;21.83;;;15.85;;
42682;SDS011;28293;50.930;3.464;2022-12-07T01:26:07;20.95;;;15.52;;
42682;SDS011;28293;50.930;3.464;2022-12-07T01:28:35;22.48;;;16.67;;
42682;SDS011;28293;50.930;3.464;2022-12-07T01:31:09;21.67;;;16.40;;
42682;SDS011;28293;50.930;3.464;2022-12-07T01:33:37;22.10;;;17.17;;
42682;SDS011;28293;50.930;3.464;2022-12-07T01:36:04;27.13;;;16.60;;
42682;SDS011;28293;50.930;3.464;2022-12-07T01:38:32;23.08;;;15.88;;
42682;SDS011;28293;50.930;3.464;2022-12-07T01:40:58;22.05;;;16.90;;
42682;SDS011;28293;50.930;3.464;2022-12-07T01:43:26;23.45;;;16.27;;
42682;SDS011;28293;50.930;3.464;2022-12-07T01:45:53;24.55;;;17.70;;
42682;SDS011;28293;50.930;3.464;2022-12-07T01:48:21;23.08;;;16.15;;
42682;SDS011;28293;50.930;3.464;2022-12-07T01:50:51;22.45;;;14.93;;
42682;SDS011;28293;50.930;3.464;2022-12-07T01:53:18;22.55;;;15.48;;
42682;SDS011;28293;50.930;3.464;2022-12-07T01:55:45;22.42;;;13.55;;
42682;SDS011;28293;50.930;3.464;2022-12-07T01:58:15;17.85;;;14.63;;
42682;SDS011;28293;50.930;3.464;2022-12-07T02:00:42;20.83;;;14.30;;
42682;SDS011;28293;50.930;3.464;2022-12-07T02:03:11;18.67;;;12.88;;
42682;SDS011;28293;50.930;3.464;2022-12-07T02:05:40;19.77;;;12.25;;
42682;SDS011;28293;50.930;3.464;2022-12-07T02:08:08;17.45;;;12.98;;
42682;SDS011;28293;50.930;3.464;2022-12-07T02:10:35;20.45;;;13.10;;
42682;SDS011;28293;50.930;3.464;2022-12-07T02:13:05;19.13;;;13.70;;
42682;SDS011;28293;50.930;3.464;2022-12-07T02:21:27;21.38;;;12.52;;
42682;SDS011;28293;50.930;3.464;2022-12-07T02:32:30;19.50;;;13.15;;
42682;SDS011;28293;50.930;3.464;2022-12-07T02:35:07;22.15;;;13.13;;
42682;SDS011;28293;50.930;3.464;2022-12-07T02:38:05;25.50;;;14.20;;
42682;SDS011;28293;50.930;3.464;2022-12-07T02:40:42;23.52;;;13.75;;
42682;SDS011;28293;50.930;3.464;2022-12-07T02:43:14;19.83;;;14.43;;
42682;SDS011;28293;50.930;3.464;2022-12-07T02:45:44;22.00;;;13.65;;
42682;SDS011;28293;50.930;3.464;2022-12-07T02:48:12;20.40;;;12.85;;
42682;SDS011;28293;50.930;3.464;2022-12-07T02:50:45;20.48;;;14.07;;
42682;SDS011;28293;50.930;3.464;2022-12-07T02:56:07;17.80;;;12.00;;
42682;SDS011;28293;50.930;3.464;2022-12-07T03:03:54;18.20;;;12.25;;
42682;SDS011;28293;50.930;3.464;2022-12-07T03:06:31;19.02;;;12.15;;
42682;SDS011;28293;50.930;3.464;2022-12-07T03:11:47;15.38;;;10.48;;
42682;SDS011;28293;50.930;3.464;2022-12-07T03:14:40;16.65;;;10.80;;
42682;SDS011;28293;50.930;3.464;2022-12-07T03:17:13;18.42;;;11.68;;
42682;SDS011;28293;50.930;3.464;2022-12-07T03:19:42;17.73;;;11.80;;
42682;SDS011;28293;50.930;3.464;2022-12-07T03:22:12;16.77;;;11.98;;
42682;SDS011;28293;50.930;3.464;2022-12-07T03:24:42;19.70;;;13.00;;
42682;SDS011;28293;50.930;3.464;2022-12-07T03:27:20;17.55;;;13.07;;
42682;SDS011;28293;50.930;3.464;2022-12-07T03:30:11;22.27;;;13.23;;
42682;SDS011;28293;50.930;3.464;2022-12-07T03:35:20;20.80;;;13.35;;
42682;SDS011;28293;50.930;3.464;2022-12-07T03:40:50;16.05;;;11.20;;
42682;SDS011;28293;50.930;3.464;2022-12-07T03:43:27;16.55;;;10.88;;
42682;SDS011;28293;50.930;3.464;2022-12-07T03:51:04;18.08;;;10.90;;
42682;SDS011;28293;50.930;3.464;2022-12-07T03:56:13;17.98;;;11.23;;
42682;SDS011;28293;50.930;3.464;2022-12-07T03:58:40;18.30;;;11.13;;
42682;SDS011;28293;50.930;3.464;2022-12-07T04:01:06;17.52;;;10.20;;
42682;SDS011;28293;50.930;3.464;2022-12-07T04:03:32;16.90;;;10.68;;
42682;SDS011;28293;50.930;3.464;2022-12-07T04:05:58;17.70;;;10.43;;
42682;SDS011;28293;50.930;3.464;2022-12-07T04:08:24;17.88;;;11.20;;
42682;SDS011;28293;50.930;3.464;2022-12-07T04:10:50;19.27;;;13.70;;
42682;SDS011;28293;50.930;3.464;2022-12-07T04:13:16;19.25;;;12.07;;
42682;SDS011;28293;50.930;3.464;2022-12-07T04:15:41;18.45;;;12.27;;
42682;SDS011;28293;50.930;3.464;2022-12-07T04:18:07;18.67;;;11.95;;
42682;SDS011;28293;50.930;3.464;2022-12-07T04:20:33;17.80;;;11.52;;
42682;SDS011;28293;50.930;3.464;2022-12-07T04:22:58;19.42;;;12.65;;
42682;SDS011;28293;50.930;3.464;2022-12-07T04:25:24;18.50;;;12.23;;
42682;SDS011;28293;50.930;3.464;2022-12-07T04:27:50;17.73;;;12.57;;
42682;SDS011;28293;50.930;3.464;2022-12-07T04:30:15;18.27;;;11.75;;
42682;SDS011;28293;50.930;3.464;2022-12-07T04:32:41;17.27;;;11.55;;
42682;SDS011;28293;50.930;3.464;2022-12-07T04:35:07;18.98;;;10.52;;
42682;SDS011;28293;50.930;3.464;2022-12-07T04:37:33;17.88;;;11.23;;
42682;SDS011;28293;50.930;3.464;2022-12-07T04:39:59;17.95;;;11.15;;
42682;SDS011;28293;50.930;3.464;2022-12-07T04:42:24;17.38;;;11.20;;
42682;SDS011;28293;50.930;3.464;2022-12-07T04:44:50;19.42;;;12.05;;
42682;SDS011;28293;50.930;3.464;2022-12-07T04:47:16;20.85;;;12.25;;
42682;SDS011;28293;50.930;3.464;2022-12-07T04:49:42;18.33;;;12.23;;
42682;SDS011;28293;50.930;3.464;2022-12-07T04:52:07;20.10;;;11.95;;
42682;SDS011;28293;50.930;3.464;2022-12-07T04:54:33;15.90;;;11.75;;
42682;SDS011;28293;50.930;3.464;2022-12-07T04:56:58;16.35;;;11.65;;
42682;SDS011;28293;50.930;3.464;2022-12-07T04:59:24;14.90;;;10.38;;
42682;SDS011;28293;50.930;3.464;2022-12-07T05:01:50;17.42;;;11.30;;
42682;SDS011;28293;50.930;3.464;2022-12-07T05:04:15;18.02;;;11.25;;
42682;SDS011;28293;50.930;3.464;2022-12-07T05:06:42;18.70;;;11.63;;
42682;SDS011;28293;50.930;3.464;2022-12-07T05:09:08;16.25;;;10.82;;
42682;SDS011;28293;50.930;3.464;2022-12-07T05:11:34;13.35;;;9.48;;
42682;SDS011;28293;50.930;3.464;2022-12-07T05:14:10;16.95;;;9.45;;
42682;SDS011;28293;50.930;3.464;2022-12-07T05:16:38;17.65;;;8.93;;
42682;SDS011;28293;50.930;3.464;2022-12-07T05:19:05;19.85;;;10.27;;
42682;SDS011;28293;50.930;3.464;2022-12-07T05:21:31;17.90;;;10.73;;
42682;SDS011;28293;50.930;3.464;2022-12-07T05:23:57;20.63;;;13.18;;
42682;SDS011;28293;50.930;3.464;2022-12-07T05:26:22;22.30;;;13.35;;
42682;SDS011;28293;50.930;3.464;2022-12-07T05:28:52;17.63;;;13.18;;
42682;SDS011;28293;50.930;3.464;2022-12-07T05:31:19;19.85;;;13.23;;
42682;SDS011;28293;50.930;3.464;2022-12-07T05:33:45;17.75;;;13.43;;
42682;SDS011;28293;50.930;3.464;2022-12-07T05:36:10;20.42;;;13.88;;
42682;SDS011;28293;50.930;3.464;2022-12-07T05:38:36;22.75;;;17.35;;
42682;SDS011;28293;50.930;3.464;2022-12-07T05:41:03;24.65;;;16.13;;
42682;SDS011;28293;50.930;3.464;2022-12-07T05:43:30;25.35;;;16.17;;
42682;SDS011;28293;50.930;3.464;2022-12-07T05:45:57;21.30;;;14.52;;
42682;SDS011;28293;50.930;3.464;2022-12-07T05:48:23;20.42;;;14.45;;
42682;SDS011;28293;50.930;3.464;2022-12-07T05:50:50;22.73;;;15.40;;
42682;SDS011;28293;50.930;3.464;2022-12-07T05:53:16;23.05;;;15.00;;
42682;SDS011;28293;50.930;3.464;2022-12-07T05:55:42;23.30;;;14.15;;
42682;SDS011;28293;50.930;3.464;2022-12-07T05:58:08;25.85;;;14.52;;
42682;SDS011;28293;50.930;3.464;2022-12-07T06:00:54;24.30;;;13.02;;
42682;SDS011;28293;50.930;3.464;2022-12-07T06:03:20;17.80;;;11.93;;
42682;SDS011;28293;50.930;3.464;2022-12-07T06:05:45;20.42;;;11.80;;
42682;SDS011;28293;50.930;3.464;2022-12-07T06:08:11;19.67;;;11.38;;
42682;SDS011;28293;50.930;3.464;2022-12-07T06:10:37;20.95;;;11.90;;
42682;SDS011;28293;50.930;3.464;2022-12-07T06:13:02;15.95;;;10.68;;
42682;SDS011;28293;50.930;3.464;2022-12-07T06:15:28;17.63;;;9.65;;
42682;SDS011;28293;50.930;3.464;2022-12-07T06:17:54;16.00;;;9.98;;
42682;SDS011;28293;50.930;3.464;2022-12-07T06:20:19;15.75;;;9.05;;
42682;SDS011;28293;50.930;3.464;2022-12-07T06:22:45;21.20;;;11.43;;
42682;SDS011;28293;50.930;3.464;2022-12-07T06:25:11;18.98;;;11.00;;
42682;SDS011;28293;50.930;3.464;2022-12-07T06:27:36;20.70;;;11.93;;
42682;SDS011;28293;50.930;3.464;2022-12-07T06:30:02;18.00;;;11.27;;
42682;SDS011;28293;50.930;3.464;2022-12-07T06:32:31;23.02;;;11.48;;
42682;SDS011;28293;50.930;3.464;2022-12-07T06:34:58;21.10;;;11.48;;
42682;SDS011;28293;50.930;3.464;2022-12-07T06:37:24;23.23;;;12.80;;
42682;SDS011;28293;50.930;3.464;2022-12-07T06:39:50;23.35;;;12.85;;
42682;SDS011;28293;50.930;3.464;2022-12-07T06:42:15;19.63;;;12.23;;
42682;SDS011;28293;50.930;3.464;2022-12-07T06:44:41;22.92;;;12.90;;
42682;SDS011;28293;50.930;3.464;2022-12-07T06:47:07;26.48;;;12.73;;
42682;SDS011;28293;50.930;3.464;2022-12-07T06:49:34;20.38;;;12.10;;
42682;SDS011;28293;50.930;3.464;2022-12-07T06:52:00;24.85;;;12.35;;
42682;SDS011;28293;50.930;3.464;2022-12-07T06:54:26;26.45;;;14.52;;
42682;SDS011;28293;50.930;3.464;2022-12-07T06:56:52;48.13;;;25.58;;
42682;SDS011;28293;50.930;3.464;2022-12-07T06:59:17;49.58;;;26.58;;
42682;SDS011;28293;50.930;3.464;2022-12-07T07:01:43;45.55;;;25.20;;
42682;SDS011;28293;50.930;3.464;2022-12-07T07:04:09;40.95;;;22.30;;
42682;SDS011;28293;50.930;3.464;2022-12-07T07:06:34;37.80;;;22.35;;
42682;SDS011;28293;50.930;3.464;2022-12-07T07:09:01;35.97;;;19.20;;
42682;SDS011;28293;50.930;3.464;2022-12-07T07:11:27;28.80;;;17.63;;
42682;SDS011;28293;50.930;3.464;2022-12-07T07:13:52;30.55;;;17.50;;
42682;SDS011;28293;50.930;3.464;2022-12-07T07:16:21;23.02;;;14.43;;
42682;SDS011;28293;50.930;3.464;2022-12-07T07:18:47;22.60;;;13.55;;
42682;SDS011;28293;50.930;3.464;2022-12-07T07:21:13;19.33;;;12.95;;
42682;SDS011;28293;50.930;3.464;2022-12-07T07:23:38;24.27;;;13.02;;
42682;SDS011;28293;50.930;3.464;2022-12-07T07:26:04;35.45;;;20.83;;
42682;SDS011;28293;50.930;3.464;2022-12-07T07:28:30;21.08;;;14.88;;
42682;SDS011;28293;50.930;3.464;2022-12-07T07:30:55;25.77;;;15.60;;
42682;SDS011;28293;50.930;3.464;2022-12-07T07:33:21;28.38;;;16.17;;
42682;SDS011;28293;50.930;3.464;2022-12-07T07:35:47;30.58;;;16.05;;
42682;SDS011;28293;50.930;3.464;2022-12-07T07:38:12;21.77;;;14.52;;
42682;SDS011;28293;50.930;3.464;2022-12-07T07:40:38;22.95;;;13.55;;
42682;SDS011;28293;50.930;3.464;2022-12-07T07:43:04;21.40;;;12.85;;
42682;SDS011;28293;50.930;3.464;2022-12-07T07:45:29;21.52;;;14.13;;
42682;SDS011;28293;50.930;3.464;2022-12-07T07:47:55;26.55;;;14.27;;
42682;SDS011;28293;50.930;3.464;2022-12-07T07:50:21;20.55;;;13.25;;
42682;SDS011;28293;50.930;3.464;2022-12-07T07:52:47;23.98;;;15.20;;
42682;SDS011;28293;50.930;3.464;2022-12-07T07:55:12;23.98;;;14.77;;
42682;SDS011;28293;50.930;3.464;2022-12-07T07:57:38;26.85;;;16.08;;
42682;SDS011;28293;50.930;3.464;2022-12-07T08:00:06;21.65;;;15.02;;
42682;SDS011;28293;50.930;3.464;2022-12-07T08:02:35;24.35;;;14.73;;
42682;SDS011;28293;50.930;3.464;2022-12-07T08:05:00;23.42;;;14.43;;
42682;SDS011;28293;50.930;3.464;2022-12-07T08:07:27;22.77;;;15.70;;
42682;SDS011;28293;50.930;3.464;2022-12-07T08:09:53;24.02;;;15.00;;
42682;SDS011;28293;50.930;3.464;2022-12-07T08:12:18;24.05;;;14.05;;
42682;SDS011;28293;50.930;3.464;2022-12-07T08:14:44;31.73;;;16.10;;
42682;SDS011;28293;50.930;3.464;2022-12-07T08:17:09;23.10;;;14.18;;
42682;SDS011;28293;50.930;3.464;2022-12-07T08:19:35;25.42;;;14.27;;
42682;SDS011;28293;50.930;3.464;2022-12-07T08:22:01;23.27;;;14.52;;
42682;SDS011;28293;50.930;3.464;2022-12-07T08:24:27;20.08;;;13.15;;
42682;SDS011;28293;50.930;3.464;2022-12-07T08:26:52;20.33;;;12.93;;
42682;SDS011;28293;50.930;3.464;2022-12-07T08:29:18;18.30;;;12.02;;
42682;SDS011;28293;50.930;3.464;2022-12-07T08:31:44;24.08;;;13.57;;
42682;SDS011;28293;50.930;3.464;2022-12-07T08:34:10;18.42;;;11.52;;
42682;SDS011;28293;50.930;3.464;2022-12-07T08:36:36;21.85;;;10.63;;
42682;SDS011;28293;50.930;3.464;2022-12-07T08:39:02;15.60;;;10.10;;
42682;SDS011;28293;50.930;3.464;2022-12-07T08:41:28;19.10;;;9.25;;
42682;SDS011;28293;50.930;3.464;2022-12-07T08:43:54;18.05;;;9.57;;
42682;SDS011;28293;50.930;3.464;2022-12-07T08:46:21;18.80;;;9.23;;
42682;SDS011;28293;50.930;3.464;2022-12-07T08:48:56;16.83;;;9.65;;
42682;SDS011;28293;50.930;3.464;2022-12-07T08:51:26;19.02;;;9.50;;
42682;SDS011;28293;50.930;3.464;2022-12-07T08:53:52;16.88;;;8.55;;
42682;SDS011;28293;50.930;3.464;2022-12-07T08:56:20;18.10;;;9.88;;
42682;SDS011;28293;50.930;3.464;2022-12-07T08:58:47;17.63;;;9.80;;
42682;SDS011;28293;50.930;3.464;2022-12-07T09:01:13;15.75;;;9.63;;
42682;SDS011;28293;50.930;3.464;2022-12-07T09:03:39;18.33;;;9.82;;
42682;SDS011;28293;50.930;3.464;2022-12-07T09:06:05;20.10;;;9.73;;
42682;SDS011;28293;50.930;3.464;2022-12-07T09:08:33;19.33;;;10.88;;
42682;SDS011;28293;50.930;3.464;2022-12-07T09:11:02;23.90;;;11.63;;
42682;SDS011;28293;50.930;3.464;2022-12-07T09:13:28;18.52;;;10.85;;
42682;SDS011;28293;50.930;3.464;2022-12-07T09:15:54;18.33;;;9.75;;
42682;SDS011;28293;50.930;3.464;2022-12-07T09:18:19;21.20;;;9.98;;
42682;SDS011;28293;50.930;3.464;2022-12-07T09:20:45;19.67;;;9.77;;
42682;SDS011;28293;50.930;3.464;2022-12-07T09:23:11;17.67;;;9.57;;
42682;SDS011;28293;50.930;3.464;2022-12-07T09:25:36;16.58;;;9.55;;
42682;SDS011;28293;50.930;3.464;2022-12-07T09:28:02;16.13;;;9.07;;
42682;SDS011;28293;50.930;3.464;2022-12-07T09:30:27;14.65;;;9.27;;
42682;SDS011;28293;50.930;3.464;2022-12-07T09:32:53;16.45;;;8.60;;
42682;SDS011;28293;50.930;3.464;2022-12-07T09:35:20;21.27;;;8.38;;
42682;SDS011;28293;50.930;3.464;2022-12-07T09:37:46;16.80;;;7.53;;
42682;SDS011;28293;50.930;3.464;2022-12-07T09:40:12;13.48;;;6.78;;
42682;SDS011;28293;50.930;3.464;2022-12-07T09:42:41;15.40;;;7.35;;
42682;SDS011;28293;50.930;3.464;2022-12-07T09:45:14;14.98;;;6.22;;
42682;SDS011;28293;50.930;3.464;2022-12-07T09:47:51;13.35;;;6.70;;
42682;SDS011;28293;50.930;3.464;2022-12-07T09:50:21;14.18;;;7.65;;
42682;SDS011;28293;50.930;3.464;2022-12-07T09:52:49;12.20;;;6.53;;
42682;SDS011;28293;50.930;3.464;2022-12-07T09:55:21;14.88;;;6.82;;
42682;SDS011;28293;50.930;3.464;2022-12-07T09:57:49;12.80;;;6.25;;
42682;SDS011;28293;50.930;3.464;2022-12-07T10:00:19;12.95;;;5.93;;
42682;SDS011;28293;50.930;3.464;2022-12-07T10:02:57;15.48;;;6.65;;
42682;SDS011;28293;50.930;3.464;2022-12-07T10:05:32;13.55;;;5.05;;
42682;SDS011;28293;50.930;3.464;2022-12-07T10:08:05;11.55;;;5.45;;
42682;SDS011;28293;50.930;3.464;2022-12-07T10:10:33;14.35;;;5.20;;
42682;SDS011;28293;50.930;3.464;2022-12-07T10:13:03;10.98;;;4.90;;
42682;SDS011;28293;50.930;3.464;2022-12-07T10:20:50;10.95;;;4.60;;
42682;SDS011;28293;50.930;3.464;2022-12-07T10:23:34;12.23;;;5.45;;
42682;SDS011;28293;50.930;3.464;2022-12-07T10:29:01;10.05;;;4.60;;
42682;SDS011;28293;50.930;3.464;2022-12-07T10:31:52;12.13;;;4.65;;
42682;SDS011;28293;50.930;3.464;2022-12-07T10:36:49;12.15;;;4.00;;
42682;SDS011;28293;50.930;3.464;2022-12-07T10:39:22;11.90;;;4.03;;
42682;SDS011;28293;50.930;3.464;2022-12-07T10:41:58;12.25;;;4.75;;
42682;SDS011;28293;50.930;3.464;2022-12-07T10:44:30;9.15;;;4.47;;
42682;SDS011;28293;50.930;3.464;2022-12-07T10:58:08;23.80;;;13.10;;
42682;SDS011;28293;50.930;3.464;2022-12-07T11:03:42;14.23;;;5.45;;
42682;SDS011;28293;50.930;3.464;2022-12-07T11:12:05;13.82;;;5.07;;
42682;SDS011;28293;50.930;3.464;2022-12-07T11:14:58;13.32;;;5.63;;
42682;SDS011;28293;50.930;3.464;2022-12-07T11:26:05;13.80;;;5.78;;
42682;SDS011;28293;50.930;3.464;2022-12-07T11:35:05;12.02;;;5.57;;
42682;SDS011;28293;50.930;3.464;2022-12-07T11:40:15;12.57;;;5.00;;
42682;SDS011;28293;50.930;3.464;2022-12-07T11:46:00;12.05;;;3.58;;
42682;SDS011;28293;50.930;3.464;2022-12-07T11:48:44;13.15;;;4.03;;
42682;SDS011;28293;50.930;3.464;2022-12-07T11:51:14;7.95;;;3.92;;
42682;SDS011;28293;50.930;3.464;2022-12-07T11:56:16;11.55;;;4.35;;
42682;SDS011;28293;50.930;3.464;2022-12-07T11:58:46;12.43;;;4.70;;
42682;SDS011;28293;50.930;3.464;2022-12-07T12:04:00;9.70;;;2.95;;
42682;SDS011;28293;50.930;3.464;2022-12-07T12:06:32;9.25;;;3.90;;
42682;SDS011;28293;50.930;3.464;2022-12-07T12:22:32;7.57;;;2.70;;
42682;SDS011;28293;50.930;3.464;2022-12-07T12:25:02;8.25;;;2.67;;
42682;SDS011;28293;50.930;3.464;2022-12-07T12:27:31;8.77;;;3.38;;
42682;SDS011;28293;50.930;3.464;2022-12-07T12:30:03;10.45;;;3.63;;
42682;SDS011;28293;50.930;3.464;2022-12-07T12:32:40;8.38;;;3.08;;
42682;SDS011;28293;50.930;3.464;2022-12-07T12:40:58;10.07;;;2.28;;
42682;SDS011;28293;50.930;3.464;2022-12-07T12:43:51;5.30;;;1.52;;
42682;SDS011;28293;50.930;3.464;2022-12-07T12:54:18;14.55;;;8.57;;
42682;SDS011;28293;50.930;3.464;2022-12-07T13:02:24;9.85;;;3.50;;
42682;SDS011;28293;50.930;3.464;2022-12-07T13:12:59;9.77;;;5.15;;
42682;SDS011;28293;50.930;3.464;2022-12-07T13:15:39;11.15;;;4.68;;
42682;SDS011;28293;50.930;3.464;2022-12-07T13:18:22;11.73;;;5.15;;
42682;SDS011;28293;50.930;3.464;2022-12-07T13:20:53;8.93;;;3.80;;
42682;SDS011;28293;50.930;3.464;2022-12-07T13:26:14;10.52;;;4.55;;
42682;SDS011;28293;50.930;3.464;2022-12-07T13:31:36;8.60;;;3.65;;
42682;SDS011;28293;50.930;3.464;2022-12-07T13:34:49;9.68;;;3.33;;
42682;SDS011;28293;50.930;3.464;2022-12-07T13:37:09;10.90;;;3.97;;
42682;SDS011;28293;50.930;3.464;2022-12-07T13:39:46;11.45;;;3.97;;
42682;SDS011;28293;50.930;3.464;2022-12-07T13:42:28;9.88;;;3.60;;
42682;SDS011;28293;50.930;3.464;2022-12-07T13:44:56;11.73;;;4.68;;
42682;SDS011;28293;50.930;3.464;2022-12-07T13:47:31;10.27;;;3.90;;
42682;SDS011;28293;50.930;3.464;2022-12-07T13:50:21;11.00;;;3.70;;
42682;SDS011;28293;50.930;3.464;2022-12-07T13:52:54;11.98;;;4.35;;
42682;SDS011;28293;50.930;3.464;2022-12-07T13:55:21;11.18;;;4.30;;
42682;SDS011;28293;50.930;3.464;2022-12-07T13:57:50;9.00;;;4.43;;
42682;SDS011;28293;50.930;3.464;2022-12-07T14:00:21;9.75;;;4.45;;
42682;SDS011;28293;50.930;3.464;2022-12-07T14:03:04;8.77;;;4.10;;
42682;SDS011;28293;50.930;3.464;2022-12-07T14:06:02;11.50;;;4.65;;
42682;SDS011;28293;50.930;3.464;2022-12-07T14:08:43;12.68;;;4.22;;
42682;SDS011;28293;50.930;3.464;2022-12-07T14:11:16;9.80;;;4.07;;
42682;SDS011;28293;50.930;3.464;2022-12-07T14:13:45;13.63;;;4.40;;
42682;SDS011;28293;50.930;3.464;2022-12-07T14:18:46;11.63;;;4.78;;
42682;SDS011;28293;50.930;3.464;2022-12-07T14:21:21;11.27;;;3.67;;
42682;SDS011;28293;50.930;3.464;2022-12-07T14:26:34;9.23;;;4.40;;
42682;SDS011;28293;50.930;3.464;2022-12-07T14:31:44;8.00;;;3.60;;
42682;SDS011;28293;50.930;3.464;2022-12-07T14:34:15;7.18;;;2.40;;
42682;SDS011;28293;50.930;3.464;2022-12-07T14:36:47;10.15;;;3.13;;
42682;SDS011;28293;50.930;3.464;2022-12-07T14:39:15;9.20;;;3.03;;
42682;SDS011;28293;50.930;3.464;2022-12-07T14:41:44;7.63;;;2.20;;
42682;SDS011;28293;50.930;3.464;2022-12-07T14:44:16;6.32;;;2.20;;
42682;SDS011;28293;50.930;3.464;2022-12-07T14:46:42;9.63;;;2.78;;
42682;SDS011;28293;50.930;3.464;2022-12-07T14:49:08;9.20;;;3.53;;
42682;SDS011;28293;50.930;3.464;2022-12-07T14:51:34;8.07;;;3.22;;
42682;SDS011;28293;50.930;3.464;2022-12-07T14:54:03;8.93;;;3.10;;
42682;SDS011;28293;50.930;3.464;2022-12-07T14:56:30;9.23;;;3.08;;
42682;SDS011;28293;50.930;3.464;2022-12-07T14:58:56;8.32;;;4.10;;
42682;SDS011;28293;50.930;3.464;2022-12-07T15:01:22;10.95;;;4.53;;
42682;SDS011;28293;50.930;3.464;2022-12-07T15:03:55;14.18;;;6.43;;
42682;SDS011;28293;50.930;3.464;2022-12-07T15:06:23;16.15;;;7.85;;
42682;SDS011;28293;50.930;3.464;2022-12-07T15:08:51;15.68;;;7.55;;
42682;SDS011;28293;50.930;3.464;2022-12-07T15:11:17;14.85;;;7.75;;
42682;SDS011;28293;50.930;3.464;2022-12-07T15:13:48;15.07;;;7.13;;
42682;SDS011;28293;50.930;3.464;2022-12-07T15:16:41;15.15;;;6.07;;
42682;SDS011;28293;50.930;3.464;2022-12-07T15:19:25;13.15;;;5.97;;
42682;SDS011;28293;50.930;3.464;2022-12-07T15:21:54;11.18;;;5.72;;
42682;SDS011;28293;50.930;3.464;2022-12-07T15:24:20;10.55;;;5.28;;
42682;SDS011;28293;50.930;3.464;2022-12-07T15:26:48;12.82;;;6.30;;
42682;SDS011;28293;50.930;3.464;2022-12-07T15:29:19;12.02;;;5.28;;
42682;SDS011;28293;50.930;3.464;2022-12-07T15:31:44;11.50;;;5.72;;
42682;SDS011;28293;50.930;3.464;2022-12-07T15:34:15;12.65;;;5.68;;
42682;SDS011;28293;50.930;3.464;2022-12-07T15:36:40;14.48;;;6.60;;
42682;SDS011;28293;50.930;3.464;2022-12-07T15:39:09;13.88;;;6.70;;
42682;SDS011;28293;50.930;3.464;2022-12-07T15:41:35;13.05;;;5.53;;
42682;SDS011;28293;50.930;3.464;2022-12-07T15:44:11;12.18;;;5.90;;
42682;SDS011;28293;50.930;3.464;2022-12-07T15:46:56;14.15;;;6.95;;
42682;SDS011;28293;50.930;3.464;2022-12-07T15:49:21;12.10;;;7.32;;
42682;SDS011;28293;50.930;3.464;2022-12-07T15:51:52;14.82;;;7.20;;
42682;SDS011;28293;50.930;3.464;2022-12-07T15:54:23;13.52;;;6.93;;
42682;SDS011;28293;50.930;3.464;2022-12-07T15:56:53;13.77;;;7.03;;
42682;SDS011;28293;50.930;3.464;2022-12-07T15:59:21;14.77;;;7.47;;
42682;SDS011;28293;50.930;3.464;2022-12-07T16:01:50;12.90;;;6.97;;
42682;SDS011;28293;50.930;3.464;2022-12-07T16:04:20;13.68;;;8.23;;
42682;SDS011;28293;50.930;3.464;2022-12-07T16:06:48;15.00;;;8.60;;
42682;SDS011;28293;50.930;3.464;2022-12-07T16:09:19;14.63;;;6.63;;
42682;SDS011;28293;50.930;3.464;2022-12-07T16:11:45;14.65;;;8.95;;
42682;SDS011;28293;50.930;3.464;2022-12-07T16:14:21;19.48;;;15.13;;
42682;SDS011;28293;50.930;3.464;2022-12-07T16:16:49;21.67;;;13.80;;
42682;SDS011;28293;50.930;3.464;2022-12-07T16:19:25;16.20;;;10.00;;
42682;SDS011;28293;50.930;3.464;2022-12-07T16:21:50;16.55;;;9.57;;
42682;SDS011;28293;50.930;3.464;2022-12-07T16:24:16;19.80;;;12.43;;
42682;SDS011;28293;50.930;3.464;2022-12-07T16:26:43;16.30;;;8.93;;
42682;SDS011;28293;50.930;3.464;2022-12-07T16:29:14;16.05;;;7.90;;
42682;SDS011;28293;50.930;3.464;2022-12-07T16:31:43;15.20;;;7.50;;
42682;SDS011;28293;50.930;3.464;2022-12-07T16:34:11;15.82;;;7.00;;
42682;SDS011;28293;50.930;3.464;2022-12-07T16:36:39;14.05;;;6.97;;
42682;SDS011;28293;50.930;3.464;2022-12-07T16:39:18;12.73;;;7.32;;
42682;SDS011;28293;50.930;3.464;2022-12-07T16:41:48;19.65;;;6.65;;
42682;SDS011;28293;50.930;3.464;2022-12-07T16:44:20;14.65;;;7.55;;
42682;SDS011;28293;50.930;3.464;2022-12-07T16:46:56;14.52;;;9.48;;
42682;SDS011;28293;50.930;3.464;2022-12-07T16:49:22;31.02;;;19.45;;
42682;SDS011;28293;50.930;3.464;2022-12-07T16:51:51;37.83;;;23.13;;
42682;SDS011;28293;50.930;3.464;2022-12-07T16:54:22;26.58;;;18.35;;
42682;SDS011;28293;50.930;3.464;2022-12-07T16:56:47;22.23;;;15.27;;
42682;SDS011;28293;50.930;3.464;2022-12-07T16:59:13;21.98;;;12.23;;
42682;SDS011;28293;50.930;3.464;2022-12-07T17:01:44;13.48;;;9.50;;
42682;SDS011;28293;50.930;3.464;2022-12-07T17:04:12;14.35;;;8.00;;
42682;SDS011;28293;50.930;3.464;2022-12-07T17:06:38;13.63;;;7.80;;
42682;SDS011;28293;50.930;3.464;2022-12-07T17:09:03;15.13;;;7.90;;
42682;SDS011;28293;50.930;3.464;2022-12-07T17:11:33;13.65;;;8.15;;
42682;SDS011;28293;50.930;3.464;2022-12-07T17:14:01;16.52;;;9.70;;